createdAt,value
2022-09-12T00:01:19.688Z,99.90
2022-09-12T00:03:46.993Z,99.90
2022-09-12T00:06:24.192Z,99.90
2022-09-12T00:08:53.677Z,99.90
2022-09-12T00:11:20.998Z,99.90
2022-09-12T00:13:48.391Z,99.90
2022-09-12T00:16:23.391Z,99.90
2022-09-12T00:18:51.374Z,99.90
2022-09-12T00:21:18.798Z,99.90
2022-09-12T00:23:46.329Z,99.90
2022-09-12T00:26:13.683Z,99.90
2022-09-12T00:28:41.160Z,99.90
2022-09-12T00:31:11.385Z,99.90
2022-09-12T00:33:38.707Z,99.90
2022-09-12T00:36:10.731Z,99.90
2022-09-12T00:38:38.787Z,99.90
2022-09-12T00:41:06.413Z,99.90
2022-09-12T00:43:35.947Z,99.90
2022-09-12T00:46:16.744Z,99.90
2022-09-12T00:48:59.783Z,99.90
2022-09-12T00:51:27.337Z,99.90
2022-09-12T00:53:54.693Z,99.90
2022-09-12T00:56:21.901Z,99.90
2022-09-12T00:59:00.649Z,99.90
2022-09-12T01:01:32.227Z,99.90
2022-09-12T01:04:00.541Z,99.90
2022-09-12T01:06:29.343Z,99.90
2022-09-12T01:08:56.582Z,99.90
2022-09-12T01:11:23.793Z,99.90
2022-09-12T01:13:51.142Z,99.90
2022-09-12T01:16:18.407Z,99.90
2022-09-12T01:19:03.701Z,99.90
2022-09-12T01:22:18.738Z,99.90
2022-09-12T01:25:14.693Z,99.90
2022-09-12T01:27:56.691Z,99.90
2022-09-12T01:30:39.611Z,99.90
2022-09-12T01:33:28.689Z,99.90
2022-09-12T01:36:30.475Z,99.90
2022-09-12T01:39:23.020Z,99.90
2022-09-12T01:41:54.698Z,99.90
2022-09-12T01:44:44.805Z,99.90
2022-09-12T01:47:22.466Z,99.90
2022-09-12T01:49:58.789Z,99.90
2022-09-12T01:52:44.151Z,99.90
2022-09-12T01:55:25.046Z,99.90
2022-09-12T01:58:19.981Z,99.90
2022-09-12T02:01:00.232Z,99.90
2022-09-12T02:03:30.185Z,99.90
2022-09-12T02:06:03.691Z,99.90
2022-09-12T02:08:38.710Z,99.90
2022-09-12T02:11:10.676Z,99.90
2022-09-12T02:13:46.912Z,99.90
2022-09-12T02:16:20.620Z,99.90
2022-09-12T02:18:52.001Z,99.90
2022-09-12T02:21:19.665Z,99.90
2022-09-12T02:23:48.420Z,99.90
2022-09-12T02:26:30.012Z,99.90
2022-09-12T02:28:57.370Z,99.90
2022-09-12T02:31:30.885Z,99.90
2022-09-12T02:34:01.992Z,99.90
2022-09-12T02:36:32.815Z,99.90
2022-09-12T02:39:00.202Z,99.90
2022-09-12T02:41:27.450Z,99.90
2022-09-12T02:43:54.667Z,99.90
2022-09-12T02:46:52.641Z,99.90
2022-09-12T02:49:19.861Z,99.90
2022-09-12T02:51:47.185Z,99.90
2022-09-12T02:54:15.190Z,99.90
2022-09-12T02:56:43.289Z,99.90
2022-09-12T02:59:15.636Z,99.90
2022-09-12T03:02:25.802Z,99.90
2022-09-12T03:04:58.917Z,99.90
2022-09-12T03:07:39.842Z,99.90
2022-09-12T03:10:23.731Z,99.90
2022-09-12T03:12:53.851Z,99.90
2022-09-12T03:15:33.040Z,99.90
2022-09-12T03:18:32.157Z,99.90
2022-09-12T03:21:07.231Z,99.90
2022-09-12T03:23:38.871Z,99.90
2022-09-12T03:26:25.427Z,99.90
2022-09-12T03:28:53.013Z,99.90
2022-09-12T03:31:20.297Z,99.90
2022-09-12T03:33:47.516Z,99.90
2022-09-12T03:36:21.589Z,99.90
2022-09-12T03:38:48.820Z,99.90
2022-09-12T03:41:16.048Z,99.90
2022-09-12T03:43:43.243Z,99.90
2022-09-12T03:46:10.481Z,99.90
2022-09-12T03:48:37.708Z,99.90
2022-09-12T03:51:06.387Z,99.90
2022-09-12T03:53:33.903Z,99.90
2022-09-12T03:56:06.040Z,99.90
2022-09-12T03:58:33.934Z,99.90
2022-09-12T04:01:01.263Z,99.90
2022-09-12T04:03:28.480Z,99.90
2022-09-12T04:05:57.690Z,99.90
2022-09-12T04:08:26.614Z,99.90
2022-09-12T04:10:53.904Z,99.90
2022-09-12T04:13:21.532Z,99.90
2022-09-12T04:15:59.275Z,99.90
2022-09-12T04:18:26.675Z,99.90
2022-09-12T04:20:53.993Z,99.90
2022-09-12T04:23:21.228Z,99.90
2022-09-12T04:25:55.750Z,99.90
2022-09-12T04:28:23.122Z,99.90
2022-09-12T04:30:50.948Z,99.90
2022-09-12T04:33:18.478Z,99.90
2022-09-12T04:35:45.710Z,99.90
2022-09-12T04:38:13.003Z,99.90
2022-09-12T04:40:40.229Z,99.90
2022-09-12T04:43:11.197Z,99.90
2022-09-12T04:45:41.135Z,99.90
2022-09-12T04:48:08.385Z,99.90
2022-09-12T04:50:35.584Z,99.90
2022-09-12T04:53:02.877Z,99.90
2022-09-12T04:55:30.078Z,99.90
2022-09-12T04:57:57.261Z,99.90
2022-09-12T05:00:24.637Z,99.90
2022-09-12T05:02:51.862Z,99.90
2022-09-12T05:05:19.062Z,99.90
2022-09-12T05:07:46.330Z,99.90
2022-09-12T05:10:13.576Z,99.90
2022-09-12T05:12:40.843Z,99.90
2022-09-12T05:15:08.773Z,99.90
2022-09-12T05:17:36.098Z,99.90
2022-09-12T05:20:03.758Z,99.90
2022-09-12T05:22:30.991Z,99.90
2022-09-12T05:24:58.198Z,99.90
2022-09-12T05:27:25.422Z,99.90
2022-09-12T05:29:52.636Z,99.90
2022-09-12T05:32:20.704Z,99.90
2022-09-12T05:34:47.902Z,99.90
2022-09-12T05:37:15.111Z,99.90
2022-09-12T05:39:42.364Z,99.90
2022-09-12T05:42:09.605Z,99.90
2022-09-12T05:44:36.986Z,99.90
2022-09-12T05:47:04.307Z,99.90
2022-09-12T05:49:31.513Z,99.90
2022-09-12T05:51:58.716Z,99.90
2022-09-12T05:54:30.868Z,99.90
2022-09-12T05:56:58.874Z,99.90
2022-09-12T05:59:26.091Z,99.90
2022-09-12T06:01:53.290Z,99.90
2022-09-12T06:04:20.650Z,99.90
2022-09-12T06:06:48.753Z,99.90
2022-09-12T06:09:16.774Z,99.90
2022-09-12T06:11:44.857Z,99.90
2022-09-12T06:14:13.119Z,99.90
2022-09-12T06:16:40.754Z,99.90
2022-09-12T06:19:18.677Z,99.90
2022-09-12T06:21:46.427Z,99.90
2022-09-12T06:24:14.057Z,99.90
2022-09-12T06:26:41.396Z,99.90
2022-09-12T06:29:09.801Z,99.90
2022-09-12T06:31:37.920Z,99.90
2022-09-12T06:34:06.356Z,99.90
2022-09-12T06:36:36.348Z,99.90
2022-09-12T06:39:08.861Z,99.90
2022-09-12T06:41:38.453Z,99.90
2022-09-12T06:44:15.509Z,99.90
2022-09-12T06:46:42.770Z,99.90
2022-09-12T06:49:10.065Z,99.90
2022-09-12T06:51:37.640Z,99.90
2022-09-12T06:54:05.384Z,99.90
2022-09-12T06:56:32.633Z,99.90
2022-09-12T06:58:59.982Z,99.90
2022-09-12T07:01:32.080Z,99.90
2022-09-12T07:04:00.641Z,99.90
2022-09-12T07:06:38.710Z,99.90
2022-09-12T07:09:06.800Z,99.90
2022-09-12T07:11:34.998Z,99.90
2022-09-12T07:14:03.045Z,99.90
2022-09-12T07:16:30.625Z,99.90
2022-09-12T07:19:00.046Z,99.90
2022-09-12T07:21:27.484Z,99.90
2022-09-12T07:24:00.515Z,99.90
2022-09-12T07:26:28.974Z,99.90
2022-09-12T07:29:08.304Z,99.90
2022-09-12T07:31:44.105Z,99.90
2022-09-12T07:34:11.352Z,99.90
2022-09-12T07:36:39.185Z,99.90
2022-09-12T07:39:06.566Z,99.90
2022-09-12T07:41:34.018Z,99.90
2022-09-12T07:44:02.174Z,99.90
2022-09-12T07:46:30.129Z,99.90
2022-09-12T07:48:58.167Z,99.90
2022-09-12T07:51:26.447Z,99.90
2022-09-12T07:53:53.796Z,99.90
2022-09-12T07:56:22.033Z,99.90
2022-09-12T07:58:51.321Z,99.90
2022-09-12T08:01:19.863Z,99.90
2022-09-12T08:03:48.314Z,99.90
2022-09-12T08:06:24.166Z,99.90
2022-09-12T08:08:52.267Z,99.90
2022-09-12T08:11:20.275Z,99.90
2022-09-12T08:13:51.682Z,99.90
2022-09-12T08:16:22.086Z,99.90
2022-09-12T08:18:49.626Z,99.90
2022-09-12T08:21:21.353Z,99.90
2022-09-12T08:23:52.200Z,99.90
2022-09-12T08:26:19.442Z,99.90
2022-09-12T08:28:46.811Z,99.90
2022-09-12T08:31:15.733Z,99.90
2022-09-12T08:33:43.049Z,99.90
2022-09-12T08:36:11.908Z,99.90
2022-09-12T08:38:40.193Z,99.90
2022-09-12T08:41:31.759Z,99.90
2022-09-12T08:44:11.527Z,99.90
2022-09-12T08:46:41.896Z,99.90
2022-09-12T08:49:14.769Z,99.90
2022-09-12T08:51:41.990Z,99.90
2022-09-12T08:54:19.397Z,99.90
2022-09-12T08:56:46.624Z,99.90
2022-09-12T08:59:13.925Z,99.90
2022-09-12T09:01:42.715Z,99.90
2022-09-12T09:04:19.274Z,99.90
2022-09-12T09:07:01.169Z,99.90
2022-09-12T09:10:07.704Z,99.90
2022-09-12T09:12:50.196Z,99.90
2022-09-12T09:15:49.485Z,99.90
2022-09-12T09:18:24.982Z,99.90
2022-09-12T09:20:56.138Z,99.90
2022-09-12T09:23:32.400Z,99.90
2022-09-12T09:26:10.512Z,99.90
2022-09-12T09:29:02.862Z,99.90
2022-09-12T09:31:38.642Z,99.90
2022-09-12T09:34:13.330Z,99.90
2022-09-12T09:37:17.908Z,99.90
2022-09-12T09:40:19.560Z,99.90
2022-09-12T09:43:01.006Z,99.90
2022-09-12T09:45:29.751Z,99.90
2022-09-12T09:48:04.079Z,99.90
2022-09-12T09:50:31.345Z,99.90
2022-09-12T09:52:58.918Z,99.90
2022-09-12T09:55:28.360Z,99.90
2022-09-12T09:57:55.641Z,99.90
2022-09-12T10:00:30.453Z,99.90
2022-09-12T10:03:01.260Z,99.90
2022-09-12T10:05:29.045Z,99.90
2022-09-12T10:07:56.301Z,99.90
2022-09-12T10:10:23.520Z,99.90
2022-09-12T10:12:51.005Z,99.90
2022-09-12T10:15:22.815Z,99.90
2022-09-12T10:17:50.719Z,99.90
2022-09-12T10:20:40.677Z,99.90
2022-09-12T10:23:31.013Z,99.90
2022-09-12T10:26:01.337Z,99.90
2022-09-12T10:28:40.230Z,99.90
2022-09-12T10:31:08.409Z,99.90
2022-09-12T10:33:41.159Z,99.90
2022-09-12T10:36:08.491Z,99.90
2022-09-12T10:38:35.733Z,99.90
2022-09-12T10:41:04.652Z,99.90
2022-09-12T10:43:37.280Z,99.90
2022-09-12T10:46:27.394Z,99.90
2022-09-12T10:49:14.105Z,99.90
2022-09-12T10:51:41.345Z,99.90
2022-09-12T10:54:10.140Z,99.90
2022-09-12T10:57:14.399Z,99.90
2022-09-12T11:00:04.980Z,99.90
2022-09-12T11:02:49.021Z,99.90
2022-09-12T11:05:36.747Z,99.90
2022-09-12T11:08:16.189Z,99.90
2022-09-12T11:11:04.584Z,99.90
2022-09-12T11:13:55.247Z,99.90
2022-09-12T11:16:45.773Z,99.90
2022-09-12T11:19:44.173Z,99.90
2022-09-12T11:22:31.518Z,99.90
2022-09-12T11:25:37.624Z,99.90
2022-09-12T11:28:35.189Z,99.90
2022-09-12T11:31:20.547Z,99.50
2022-09-12T11:33:54.002Z,99.90
2022-09-12T11:36:33.685Z,99.40
2022-09-12T11:39:12.810Z,99.50
2022-09-12T11:41:42.132Z,99.90
2022-09-12T11:44:28.674Z,99.90
2022-09-12T11:46:56.014Z,99.90
2022-09-12T11:49:35.603Z,99.90
2022-09-12T11:52:16.696Z,99.90
2022-09-12T11:55:29.882Z,99.90
2022-09-12T11:57:58.484Z,99.90
2022-09-12T12:00:34.188Z,99.90
2022-09-12T12:03:27.026Z,99.90
2022-09-12T12:06:10.601Z,99.90
2022-09-12T12:08:41.652Z,99.90
2022-09-12T12:11:08.984Z,99.40
2022-09-12T12:13:42.254Z,99.30
2022-09-12T12:16:26.890Z,99.80
2022-09-12T12:19:01.216Z,99.90
2022-09-12T12:21:36.268Z,98.70
2022-09-12T12:24:09.462Z,97.70
2022-09-12T12:26:39.633Z,98.10
2022-09-12T12:29:13.722Z,98.40
2022-09-12T12:32:19.163Z,97.70
2022-09-12T12:34:46.996Z,98.20
2022-09-12T12:37:20.482Z,97.30
2022-09-12T12:39:51.095Z,97.40
2022-09-12T12:42:36.279Z,98.60
2022-09-12T12:45:04.275Z,96.80
2022-09-12T12:47:41.079Z,95.30
2022-09-12T12:50:13.115Z,95.80
2022-09-12T12:53:06.846Z,97.00
2022-09-12T12:55:43.324Z,95.20
2022-09-12T12:58:39.550Z,95.70
2022-09-12T13:01:09.967Z,95.60
2022-09-12T13:03:37.391Z,97.50
2022-09-12T13:06:07.220Z,94.40
2022-09-12T13:08:39.139Z,93.10
2022-09-12T13:11:15.516Z,93.30
2022-09-12T13:13:48.537Z,94.60
2022-09-12T13:16:37.779Z,95.20
2022-09-12T13:19:18.404Z,92.90
2022-09-12T13:22:06.001Z,95.40
2022-09-12T13:24:33.657Z,96.90
2022-09-12T13:27:00.863Z,95.90
2022-09-12T13:29:28.170Z,97.30
2022-09-12T13:32:01.873Z,97.20
2022-09-12T13:34:31.640Z,95.70
2022-09-12T13:37:16.930Z,95.80
2022-09-12T13:39:48.157Z,95.80
2022-09-12T13:42:46.450Z,95.40
2022-09-12T13:45:14.993Z,95.70
2022-09-12T13:48:01.906Z,92.50
2022-09-12T13:50:36.930Z,95.60
2022-09-12T13:53:05.780Z,95.40
2022-09-12T13:55:37.645Z,92.10
2022-09-12T13:58:20.978Z,93.10
2022-09-12T14:00:59.782Z,91.30
2022-09-12T14:03:47.646Z,94.40
2022-09-12T14:06:16.299Z,93.00
2022-09-12T14:08:43.747Z,93.60
2022-09-12T14:11:11.509Z,93.90
2022-09-12T14:13:39.084Z,94.50
2022-09-12T14:16:09.741Z,95.10
2022-09-12T14:18:38.039Z,93.70
2022-09-12T14:21:13.114Z,94.40
2022-09-12T14:23:42.500Z,94.80
2022-09-12T14:26:12.951Z,95.90
2022-09-12T14:28:41.757Z,95.60
2022-09-12T14:31:18.380Z,94.80
2022-09-12T14:34:15.591Z,95.00
2022-09-12T14:36:44.439Z,94.70
2022-09-12T14:39:38.168Z,93.60
2022-09-12T14:42:07.431Z,92.10
2022-09-12T14:44:34.829Z,92.90
2022-09-12T14:47:16.013Z,94.10
2022-09-12T14:49:43.198Z,94.20
2022-09-12T14:52:43.539Z,95.10
2022-09-12T14:55:20.946Z,95.30
2022-09-12T14:57:50.040Z,95.70
2022-09-12T15:00:20.882Z,96.50
2022-09-12T15:02:49.450Z,97.00
2022-09-12T15:05:22.184Z,97.20
2022-09-12T15:07:54.366Z,97.80
2022-09-12T15:10:31.010Z,97.10
2022-09-12T15:13:09.877Z,96.40
2022-09-12T15:15:38.405Z,96.50
2022-09-12T15:18:06.807Z,98.30
2022-09-12T15:20:36.458Z,98.60
2022-09-12T15:23:03.661Z,98.10
2022-09-12T15:25:30.852Z,98.10
2022-09-12T15:27:58.233Z,98.10
2022-09-12T15:30:25.444Z,98.20
2022-09-12T15:32:52.643Z,98.40
2022-09-12T15:35:22.939Z,98.60
2022-09-12T15:37:50.339Z,98.90
2022-09-12T15:40:17.865Z,99.00
2022-09-12T15:42:45.191Z,99.40
2022-09-12T15:45:20.896Z,98.80
2022-09-12T15:47:48.188Z,99.30
2022-09-12T15:50:15.490Z,99.90
2022-09-12T15:52:42.787Z,99.90
2022-09-12T15:55:25.717Z,99.60
2022-09-12T15:57:52.992Z,99.90
2022-09-12T16:00:20.315Z,99.90
2022-09-12T16:02:49.018Z,99.70
2022-09-12T16:05:21.569Z,99.50
2022-09-12T16:07:50.215Z,99.70
2022-09-12T16:10:18.789Z,99.40
2022-09-12T16:12:46.181Z,99.00
2022-09-12T16:15:16.112Z,99.00
2022-09-12T16:17:43.370Z,98.90
2022-09-12T16:20:10.812Z,99.90
2022-09-12T16:22:38.226Z,99.90
2022-09-12T16:25:05.994Z,99.90
2022-09-12T16:27:33.405Z,99.90
2022-09-12T16:30:00.722Z,99.90
2022-09-12T16:32:27.926Z,99.90
2022-09-12T16:34:55.135Z,99.90
2022-09-12T16:37:22.354Z,99.90
2022-09-12T16:39:49.863Z,99.90
2022-09-12T16:42:20.118Z,99.90
2022-09-12T16:44:47.352Z,99.90
2022-09-12T16:47:15.075Z,99.90
2022-09-12T16:49:42.321Z,99.90
2022-09-12T16:52:09.825Z,99.90
2022-09-12T16:54:37.025Z,99.90
2022-09-12T16:57:06.394Z,99.90
2022-09-12T16:59:33.731Z,99.90
2022-09-12T17:02:00.968Z,99.90
2022-09-12T17:04:28.430Z,99.90
2022-09-12T17:06:57.382Z,99.90
2022-09-12T17:09:24.669Z,99.90
2022-09-12T17:11:53.142Z,99.90
2022-09-12T17:14:20.765Z,99.90
2022-09-12T17:16:51.676Z,99.90
2022-09-12T17:19:20.223Z,99.90
2022-09-12T17:21:48.752Z,99.90
2022-09-12T17:24:17.297Z,99.90
2022-09-12T17:27:08.298Z,99.90
2022-09-12T17:29:47.017Z,99.90
2022-09-12T17:32:17.606Z,99.90
2022-09-12T17:34:44.963Z,99.90
2022-09-12T17:37:12.186Z,99.90
2022-09-12T17:39:39.447Z,99.90
2022-09-12T17:42:07.906Z,99.90
2022-09-12T17:44:35.842Z,99.90
2022-09-12T17:47:04.246Z,99.90
2022-09-12T17:49:31.723Z,99.90
2022-09-12T17:51:58.897Z,99.90
2022-09-12T17:54:27.617Z,99.90
2022-09-12T17:56:56.232Z,99.90
2022-09-12T17:59:24.744Z,99.90
2022-09-12T18:02:10.357Z,99.90
2022-09-12T18:04:37.723Z,99.90
2022-09-12T18:07:04.966Z,99.90
2022-09-12T18:09:32.187Z,99.90
2022-09-12T18:11:59.585Z,99.90
2022-09-12T18:14:27.789Z,99.90
2022-09-12T18:16:57.079Z,99.90
2022-09-12T18:19:24.422Z,99.90
2022-09-12T18:21:51.641Z,99.90
2022-09-12T18:24:18.897Z,99.90
2022-09-12T18:26:46.143Z,99.90
2022-09-12T18:29:16.769Z,99.90
2022-09-12T18:31:44.371Z,99.90
2022-09-12T18:34:14.940Z,99.90
2022-09-12T18:36:47.220Z,99.90
2022-09-12T18:39:14.708Z,99.90
2022-09-12T18:41:41.980Z,99.90
2022-09-12T18:44:10.436Z,99.90
2022-09-12T18:46:37.768Z,99.90
2022-09-12T18:49:05.537Z,99.90
2022-09-12T18:51:34.866Z,99.90
2022-09-12T18:54:06.818Z,99.90
2022-09-12T18:56:35.063Z,99.90
2022-09-12T18:59:03.546Z,99.90
2022-09-12T19:01:32.387Z,99.90
2022-09-12T19:04:00.890Z,99.90
2022-09-12T19:06:29.523Z,99.90
2022-09-12T19:08:56.989Z,99.90
2022-09-12T19:11:24.485Z,99.90
2022-09-12T19:13:52.325Z,99.90
2022-09-12T19:16:24.304Z,99.90
2022-09-12T19:18:52.426Z,99.90
2022-09-12T19:21:22.328Z,99.90
2022-09-12T19:23:49.638Z,99.90
2022-09-12T19:26:17.134Z,99.90
2022-09-12T19:28:44.437Z,99.90
2022-09-12T19:31:13.169Z,99.90
2022-09-12T19:33:40.586Z,99.90
2022-09-12T19:36:27.251Z,99.90
2022-09-12T19:38:56.404Z,99.90
2022-09-12T19:41:23.623Z,99.90
2022-09-12T19:43:50.849Z,99.90
2022-09-12T19:46:19.778Z,99.90
2022-09-12T19:48:47.338Z,99.90
2022-09-12T19:51:14.841Z,99.90
2022-09-12T19:53:42.379Z,99.90
2022-09-12T19:56:10.368Z,99.90
2022-09-12T19:58:45.261Z,99.90
2022-09-12T20:01:17.503Z,99.90
2022-09-12T20:03:45.052Z,99.90
2022-09-12T20:06:16.406Z,99.90
2022-09-12T20:08:44.020Z,99.90
2022-09-12T20:11:15.718Z,99.90
2022-09-12T20:13:43.578Z,99.90
2022-09-12T20:16:19.012Z,99.90
2022-09-12T20:18:53.170Z,99.90
2022-09-12T20:21:21.913Z,99.90
2022-09-12T20:23:49.407Z,99.90
2022-09-12T20:26:16.652Z,99.90
2022-09-12T20:28:43.858Z,99.90
2022-09-12T20:31:12.574Z,99.90
2022-09-12T20:33:40.030Z,99.90
2022-09-12T20:36:17.685Z,99.90
2022-09-12T20:38:52.056Z,99.90
2022-09-12T20:41:19.699Z,99.90
2022-09-12T20:43:54.071Z,99.90
2022-09-12T20:46:22.487Z,99.90
2022-09-12T20:48:50.675Z,99.90
2022-09-12T20:51:18.833Z,99.90
2022-09-12T20:53:46.230Z,99.90
2022-09-12T20:56:14.869Z,99.90
2022-09-12T20:58:44.513Z,99.90
2022-09-12T21:01:12.547Z,99.90
2022-09-12T21:03:40.236Z,99.90
2022-09-12T21:06:08.205Z,99.90
2022-09-12T21:08:35.794Z,99.90
2022-09-12T21:11:03.412Z,99.90
2022-09-12T21:13:30.805Z,99.90
2022-09-12T21:16:04.502Z,99.90
2022-09-12T21:18:32.017Z,99.90
2022-09-12T21:20:59.222Z,99.90
2022-09-12T21:23:27.023Z,99.90
2022-09-12T21:25:54.340Z,99.90
2022-09-12T21:28:22.085Z,99.90
2022-09-12T21:30:49.901Z,99.90
2022-09-12T21:33:18.289Z,99.90
2022-09-12T21:35:47.226Z,99.90
2022-09-12T21:38:15.245Z,99.90
2022-09-12T21:40:42.575Z,99.90
2022-09-12T21:43:12.781Z,99.90
2022-09-12T21:45:40.622Z,99.90
2022-09-12T21:48:07.973Z,99.90
2022-09-12T21:50:35.185Z,99.90
2022-09-12T21:53:02.401Z,99.90
2022-09-12T21:55:29.641Z,99.90
2022-09-12T21:57:56.933Z,99.90
2022-09-12T22:00:24.359Z,99.90
2022-09-12T22:02:51.573Z,99.90
2022-09-12T22:05:20.307Z,99.90
2022-09-12T22:07:47.505Z,99.90
2022-09-12T22:10:15.179Z,99.90
2022-09-12T22:12:46.221Z,99.90
2022-09-12T22:15:38.819Z,99.90
2022-09-12T22:18:00.888Z,99.90
2022-09-12T22:20:28.151Z,99.90
2022-09-12T22:23:13.913Z,99.90
2022-09-12T22:25:41.113Z,99.90
2022-09-12T22:28:08.314Z,99.90
2022-09-12T22:30:35.935Z,99.90
2022-09-12T22:33:03.149Z,99.90
2022-09-12T22:35:30.871Z,99.90
2022-09-12T22:37:58.085Z,99.90
2022-09-12T22:40:25.333Z,99.90
2022-09-12T22:42:52.958Z,99.90
2022-09-12T22:45:20.217Z,99.90
2022-09-12T22:47:47.428Z,99.90
2022-09-12T22:50:14.662Z,99.90
2022-09-12T22:52:41.923Z,99.90
2022-09-12T22:55:09.864Z,99.90
2022-09-12T22:57:37.371Z,99.90
2022-09-12T23:00:08.201Z,99.90
2022-09-12T23:02:35.405Z,99.90
2022-09-12T23:05:02.715Z,99.90
2022-09-12T23:07:29.927Z,99.90
2022-09-12T23:09:57.109Z,99.90
2022-09-12T23:12:24.327Z,99.90
2022-09-12T23:14:51.545Z,99.90
2022-09-12T23:17:18.741Z,99.90
2022-09-12T23:19:45.933Z,99.90
2022-09-12T23:22:13.140Z,99.90
2022-09-12T23:24:40.362Z,99.90
2022-09-12T23:27:09.292Z,99.90
2022-09-12T23:29:37.239Z,99.90
2022-09-12T23:32:06.047Z,99.90
2022-09-12T23:34:34.407Z,99.90
2022-09-12T23:37:04.414Z,99.90
2022-09-12T23:39:32.560Z,99.90
2022-09-12T23:41:59.879Z,99.90
2022-09-12T23:44:27.334Z,99.90
2022-09-12T23:46:54.977Z,99.90
2022-09-12T23:49:22.499Z,99.90
2022-09-12T23:51:49.902Z,99.90
2022-09-12T23:54:17.105Z,99.90
2022-09-12T23:56:45.539Z,99.90
2022-09-12T23:59:12.838Z,99.90
